Terminal Aerodrome Forecast
Issued by NWS

Home | Current Version | Previous Version | Text Only | Print | Product List | Glossary On
Versions: 1 2 3 4 5 6 7 8 9 10 11 12 13
000
FTUS45 KRIW 200500
TAFCOD
TAF
KCOD 200520Z 2006/2106 VRB06KT P6SM SKC
     FM201800 14008KT P6SM SKC
     FM210000 VRB05KT P6SM FEW150
      AMD LTD TO CLD VIS AND WIND=

USA.gov is the U.S. government's official web portal to all federal, state and local government web resources and services.